CheckWX is a tool to help pilots better visualize weather data.  It is not intended as a substitute for an official pre-flight weather briefing.

16:26:24 UTC

CYKY METAR
Kindersley Airport
Kindersley, Canada
Current

26 mins ago

CYKY 161600Z 00000KT 15SM FEW140 SCT240 18/12 A2962 RMK AC1CI2 SLP029 DENSITY ALT 3500FT
Observed
Sep-16 @ 16:00 UTC
Visibility
15 SM
Flight Rules
VFR
Cloud Levels
  • Few at 14,000' AGL
  • Scattered at 24,000' AGL
Temperature
18°C / 64°F
Dewpoint
12°C / 54°F
Humidity
68%
Altimeter
29.62" Hg
Pressure
1003.02 hPa
Previous

1 hour ago

CYKY 161500Z 29009KT 15SM FEW230 15/11 A2962 RMK CI1 SLP030 DENSITY ALT 3200FT
Observed
Sep-16 @ 15:00 UTC
Wind
  • 290° at 9 KTS
Visibility
15 SM
Flight Rules
VFR
Cloud Levels
  • Few at 23,000' AGL
Temperature
15°C / 59°F
Dewpoint
11°C / 52°F
Humidity
77%
Altimeter
29.62" Hg
Pressure
1003.02 hPa
Previous

2 hours ago

CYKY 161400Z 16003KT 150V250 15SM FEW230 11/09 A2962 RMK CI1 SLP035 DENSITY ALT 2700FT
Observed
Sep-16 @ 14:00 UTC
Wind
  • 160° at 3 KTS
Visibility
15 SM
Flight Rules
VFR
Cloud Levels
  • Few at 23,000' AGL
Temperature
11°C / 52°F
Dewpoint
C / 48°F
Humidity
88%
Altimeter
29.62" Hg
Pressure
1003.02 hPa